createdAt,value
2022-12-08T00:00:33.228Z,11.77
2022-12-08T00:03:01.264Z,10.85
2022-12-08T00:05:46.944Z,10.00
2022-12-08T00:08:35.942Z,8.40
2022-12-08T00:11:05.335Z,9.50
2022-12-08T00:13:34.394Z,11.50
2022-12-08T00:16:04.150Z,10.13
2022-12-08T00:18:35.103Z,10.70
2022-12-08T00:21:07.737Z,9.30
2022-12-08T00:23:36.882Z,10.30
2022-12-08T00:26:06.497Z,9.18
2022-12-08T00:28:37.328Z,10.55
2022-12-08T00:31:11.873Z,10.35
2022-12-08T00:33:41.663Z,9.57
2022-12-08T00:36:10.009Z,11.27
2022-12-08T00:38:39.675Z,9.85
2022-12-08T00:41:14.045Z,8.90
2022-12-08T00:43:44.505Z,9.25
2022-12-08T00:46:12.336Z,9.43
2022-12-08T00:48:47.123Z,9.57
2022-12-08T00:51:14.718Z,9.70
2022-12-08T00:53:42.393Z,10.13
2022-12-08T00:56:11.393Z,9.73
2022-12-08T00:58:39.214Z,9.32
2022-12-08T01:01:11.862Z,10.90
2022-12-08T01:03:39.567Z,10.68
2022-12-08T01:06:08.705Z,10.50
2022-12-08T01:08:37.612Z,9.63
2022-12-08T01:11:07.180Z,10.07
2022-12-08T01:13:42.424Z,10.13
2022-12-08T01:16:10.264Z,10.43
2022-12-08T01:18:38.417Z,11.55
2022-12-08T01:21:10.352Z,10.90
2022-12-08T01:23:38.498Z,10.63
2022-12-08T01:26:09.082Z,10.98
2022-12-08T01:28:44.863Z,10.20
2022-12-08T01:31:13.383Z,11.82
2022-12-08T01:33:41.306Z,11.35
2022-12-08T01:36:09.600Z,10.73
2022-12-08T01:38:40.906Z,10.70
2022-12-08T01:41:08.627Z,10.05
2022-12-08T01:43:55.687Z,10.93
2022-12-08T01:46:23.733Z,11.20
2022-12-08T01:48:52.630Z,11.10
2022-12-08T01:51:27.520Z,11.27
2022-12-08T01:53:55.703Z,10.18
2022-12-08T01:56:36.957Z,11.25
2022-12-08T01:59:21.049Z,12.18
2022-12-08T02:01:54.884Z,11.57
2022-12-08T02:04:32.092Z,10.25
2022-12-08T02:07:08.397Z,11.20
2022-12-08T02:09:40.049Z,10.77
2022-12-08T02:12:08.375Z,10.73
2022-12-08T02:14:37.500Z,11.45
2022-12-08T02:17:13.322Z,11.25
2022-12-08T02:19:58.968Z,11.35
2022-12-08T02:22:30.209Z,11.13
2022-12-08T02:25:02.565Z,12.05
2022-12-08T02:27:37.886Z,10.77
2022-12-08T02:30:20.924Z,12.68
2022-12-08T02:33:06.020Z,12.32
2022-12-08T02:35:37.671Z,12.30
2022-12-08T02:38:08.966Z,12.18
2022-12-08T02:40:38.991Z,13.40
2022-12-08T02:43:08.714Z,13.95
2022-12-08T02:45:39.479Z,12.75
2022-12-08T02:48:07.124Z,13.10
2022-12-08T02:50:36.048Z,13.45
2022-12-08T02:55:36.745Z,12.18
2022-12-08T02:58:20.801Z,12.85
2022-12-08T03:00:56.144Z,11.40
2022-12-08T03:03:28.217Z,10.85
2022-12-08T03:06:01.874Z,11.35
2022-12-08T03:08:33.643Z,12.70
2022-12-08T03:11:03.611Z,12.05
2022-12-08T03:13:33.883Z,11.98
2022-12-08T03:16:02.913Z,13.23
2022-12-08T03:18:32.370Z,12.57
2022-12-08T03:21:01.498Z,14.13
2022-12-08T03:23:30.366Z,12.38
2022-12-08T03:25:59.571Z,13.63
2022-12-08T03:28:27.900Z,10.52
2022-12-08T03:30:57.001Z,11.90
2022-12-08T03:33:26.495Z,12.88
2022-12-08T03:35:57.976Z,11.65
2022-12-08T03:38:26.881Z,12.48
2022-12-08T03:41:08.545Z,13.73
2022-12-08T03:43:36.436Z,13.60
2022-12-08T03:46:04.128Z,11.02
2022-12-08T03:48:31.854Z,13.30
2022-12-08T03:50:59.456Z,12.85
2022-12-08T03:53:28.307Z,14.10
2022-12-08T03:55:55.917Z,12.50
2022-12-08T03:58:23.476Z,12.88
2022-12-08T04:00:51.079Z,14.55
2022-12-08T04:03:18.628Z,11.27
2022-12-08T04:05:46.113Z,13.32
2022-12-08T04:08:13.942Z,14.13
2022-12-08T04:10:43.382Z,14.50
2022-12-08T04:13:10.910Z,13.40
2022-12-08T04:15:38.957Z,16.25
2022-12-08T04:18:06.500Z,17.67
2022-12-08T04:20:34.011Z,15.15
2022-12-08T04:23:01.839Z,12.85
2022-12-08T04:25:29.931Z,12.73
2022-12-08T04:27:58.778Z,12.57
2022-12-08T04:30:26.266Z,14.07
2022-12-08T04:32:53.799Z,14.40
2022-12-08T04:35:21.366Z,14.63
2022-12-08T04:37:49.010Z,14.32
2022-12-08T04:40:16.669Z,14.18
2022-12-08T04:42:44.523Z,14.90
2022-12-08T04:45:13.721Z,14.45
2022-12-08T04:47:41.219Z,15.25
2022-12-08T04:50:09.654Z,13.13
2022-12-08T04:52:37.130Z,14.10
2022-12-08T04:55:04.965Z,12.15
2022-12-08T04:57:32.471Z,12.55
2022-12-08T05:00:00.148Z,14.25
2022-12-08T05:02:29.574Z,12.75
2022-12-08T05:04:57.090Z,13.18
2022-12-08T05:07:25.173Z,12.75
2022-12-08T05:09:52.913Z,12.90
2022-12-08T05:12:20.870Z,11.38
2022-12-08T05:14:48.666Z,10.80
2022-12-08T05:17:16.299Z,13.30
2022-12-08T05:19:46.214Z,14.10
2022-12-08T05:22:13.738Z,14.35
2022-12-08T05:24:47.012Z,13.63
2022-12-08T05:27:15.115Z,13.63
2022-12-08T05:29:42.991Z,13.48
2022-12-08T05:32:10.466Z,13.90
2022-12-08T05:34:38.021Z,13.85
2022-12-08T05:37:06.937Z,14.30
2022-12-08T05:39:34.457Z,15.32
2022-12-08T05:42:02.008Z,13.73
2022-12-08T05:44:29.548Z,13.75
2022-12-08T05:46:57.159Z,13.02
2022-12-08T05:49:25.181Z,14.18
2022-12-08T05:51:52.957Z,12.50
2022-12-08T05:54:22.002Z,13.50
2022-12-08T05:56:49.478Z,13.98
2022-12-08T05:59:20.171Z,12.20
2022-12-08T06:01:47.864Z,14.57
2022-12-08T06:04:15.483Z,12.02
2022-12-08T06:06:43.123Z,14.18
2022-12-08T06:09:12.550Z,12.57
2022-12-08T06:11:46.843Z,14.20
2022-12-08T06:14:14.494Z,13.65
2022-12-08T06:16:42.504Z,14.15
2022-12-08T06:19:11.160Z,12.93
2022-12-08T06:21:39.679Z,12.85
2022-12-08T06:24:10.482Z,13.02
2022-12-08T06:26:40.688Z,11.98
2022-12-08T06:29:13.345Z,13.43
2022-12-08T06:31:48.579Z,13.70
2022-12-08T06:34:17.241Z,15.68
2022-12-08T06:36:45.590Z,16.30
2022-12-08T06:39:17.452Z,16.52
2022-12-08T06:42:11.491Z,12.02
2022-12-08T06:44:41.201Z,15.45
2022-12-08T06:47:09.238Z,13.13
2022-12-08T06:49:38.502Z,13.15
2022-12-08T06:52:15.963Z,14.70
2022-12-08T06:55:50.843Z,14.48
2022-12-08T07:01:26.566Z,15.53
2022-12-08T07:03:55.984Z,14.63
2022-12-08T07:06:25.125Z,14.30
2022-12-08T07:08:52.998Z,15.80
2022-12-08T07:11:22.273Z,15.32
2022-12-08T07:13:53.134Z,14.45
2022-12-08T07:16:21.004Z,17.30
2022-12-08T07:18:50.835Z,16.13
2022-12-08T07:21:19.049Z,16.80
2022-12-08T07:23:50.236Z,17.15
2022-12-08T07:26:22.707Z,18.00
2022-12-08T07:28:50.397Z,17.30
2022-12-08T07:31:19.799Z,18.27
2022-12-08T07:33:48.867Z,18.05
2022-12-08T07:36:18.715Z,16.38
2022-12-08T07:38:48.392Z,16.27
2022-12-08T07:41:19.685Z,16.38
2022-12-08T07:43:49.822Z,15.35
2022-12-08T07:46:51.029Z,16.63
2022-12-08T07:49:20.939Z,15.50
2022-12-08T07:51:58.886Z,17.52
2022-12-08T07:54:26.723Z,15.27
2022-12-08T07:56:54.431Z,15.82
2022-12-08T07:59:21.974Z,16.85
2022-12-08T08:02:13.169Z,15.90
2022-12-08T08:04:40.003Z,17.90
2022-12-08T08:07:09.077Z,13.75
2022-12-08T08:09:36.965Z,15.05
2022-12-08T08:12:29.457Z,18.20
2022-12-08T08:14:52.225Z,15.60
2022-12-08T08:17:22.306Z,15.27
2022-12-08T08:19:49.976Z,14.43
2022-12-08T08:22:18.923Z,15.00
2022-12-08T08:24:46.453Z,14.45
2022-12-08T08:27:14.620Z,15.57
2022-12-08T08:29:42.192Z,15.65
2022-12-08T08:32:10.256Z,15.48
2022-12-08T08:34:37.844Z,16.70
2022-12-08T08:37:05.325Z,17.10
2022-12-08T08:39:36.529Z,16.33
2022-12-08T08:42:04.092Z,16.40
2022-12-08T08:44:32.820Z,17.88
2022-12-08T08:47:01.144Z,15.93
2022-12-08T08:49:31.665Z,15.13
2022-12-08T08:52:12.222Z,16.08
2022-12-08T08:54:41.456Z,16.98
2022-12-08T08:57:09.965Z,15.05
2022-12-08T08:59:37.738Z,16.70
2022-12-08T09:02:05.361Z,16.83
2022-12-08T09:04:33.891Z,15.00
2022-12-08T09:07:02.328Z,15.23
2022-12-08T09:09:30.921Z,16.90
2022-12-08T09:12:00.184Z,16.33
2022-12-08T09:14:27.920Z,16.25
2022-12-08T09:16:55.522Z,14.82
2022-12-08T09:19:23.075Z,15.93
2022-12-08T09:21:50.619Z,16.95
2022-12-08T09:24:18.231Z,16.40
2022-12-08T09:26:46.856Z,18.13
2022-12-08T09:29:17.708Z,16.83
2022-12-08T09:31:45.746Z,18.27
2022-12-08T09:34:14.483Z,18.40
2022-12-08T09:36:42.023Z,16.75
2022-12-08T09:39:09.609Z,16.58
2022-12-08T09:41:44.869Z,17.63
2022-12-08T09:44:24.916Z,16.95
2022-12-08T11:44:21.763Z,17.20
2022-12-08T11:46:52.678Z,18.45
2022-12-08T11:49:21.495Z,18.85
2022-12-08T11:51:52.465Z,20.92
2022-12-08T11:54:25.848Z,19.30
2022-12-08T11:56:55.399Z,21.42
2022-12-08T11:59:27.587Z,19.85
2022-12-08T12:01:55.417Z,19.45
2022-12-08T12:04:30.405Z,18.75
2022-12-08T12:07:10.348Z,20.33
2022-12-08T12:09:45.850Z,18.05
2022-12-08T12:12:17.117Z,18.20
2022-12-08T12:14:57.860Z,19.45
2022-12-08T12:17:30.946Z,20.55
2022-12-08T12:20:00.635Z,18.70
2022-12-08T12:22:34.196Z,20.20
2022-12-08T12:25:02.620Z,19.92
2022-12-08T12:27:31.997Z,18.77
2022-12-08T12:30:05.680Z,20.70
2022-12-08T12:32:42.019Z,18.00
2022-12-08T12:35:15.253Z,20.38
2022-12-08T12:37:45.323Z,17.87
2022-12-08T12:40:18.615Z,19.10
2022-12-08T12:42:54.401Z,18.63
2022-12-08T12:45:28.925Z,19.15
2022-12-08T12:48:11.278Z,17.35
2022-12-08T12:50:43.398Z,18.20
2022-12-08T12:53:26.210Z,20.70
2022-12-08T12:55:55.958Z,18.17
2022-12-08T12:58:34.393Z,18.08
2022-12-08T13:01:20.754Z,19.67
2022-12-08T13:03:51.683Z,19.77
2022-12-08T13:06:23.837Z,21.65
2022-12-08T13:08:52.755Z,18.70
2022-12-08T13:11:20.533Z,18.08
2022-12-08T13:13:56.813Z,18.85
2022-12-08T13:16:31.500Z,17.65
2022-12-08T13:19:02.537Z,15.85
2022-12-08T13:21:34.918Z,17.83
2022-12-08T13:24:23.169Z,16.55
2022-12-08T13:27:11.847Z,16.90
2022-12-08T13:29:40.132Z,17.30
2022-12-08T13:32:48.840Z,16.35
2022-12-08T13:35:21.473Z,14.80
2022-12-08T13:37:55.178Z,16.77
2022-12-08T13:40:25.226Z,17.45
2022-12-08T13:43:01.852Z,17.73
2022-12-08T13:48:35.196Z,16.65
2022-12-08T13:57:10.570Z,15.18
2022-12-08T13:59:44.071Z,15.80
2022-12-08T14:02:17.462Z,15.73
2022-12-08T14:07:35.014Z,17.88
2022-12-08T14:10:03.960Z,16.15
2022-12-08T14:12:32.146Z,17.65
2022-12-08T14:15:03.610Z,15.93
2022-12-08T14:17:43.084Z,16.95
2022-12-08T14:20:19.260Z,15.93
2022-12-08T14:22:50.396Z,16.50
2022-12-08T14:25:19.349Z,16.58
2022-12-08T14:27:47.344Z,16.35
2022-12-08T14:30:19.722Z,18.08
2022-12-08T14:32:50.089Z,15.02
2022-12-08T14:35:22.109Z,15.10
2022-12-08T14:37:53.002Z,16.23
2022-12-08T14:40:24.995Z,15.90
2022-12-08T14:42:53.844Z,15.32
2022-12-08T14:45:26.727Z,16.05
2022-12-08T14:48:10.449Z,14.13
2022-12-08T14:50:48.838Z,15.73
2022-12-08T14:53:24.665Z,18.27
2022-12-08T14:55:53.526Z,16.27
2022-12-08T14:58:28.948Z,17.58
2022-12-08T15:01:14.464Z,16.60
2022-12-08T15:03:47.226Z,15.32
2022-12-08T15:06:21.077Z,15.73
2022-12-08T15:08:55.677Z,20.52
2022-12-08T15:11:29.255Z,16.58
2022-12-08T15:13:57.564Z,17.15
2022-12-08T15:16:51.129Z,15.82
2022-12-08T15:19:26.480Z,15.07
2022-12-08T15:22:00.731Z,16.10
2022-12-08T15:24:39.831Z,16.45
2022-12-08T15:27:07.489Z,16.42
2022-12-08T15:29:36.185Z,16.75
2022-12-08T15:32:03.966Z,16.27
2022-12-08T15:34:32.745Z,17.33
2022-12-08T15:37:00.706Z,16.88
2022-12-08T15:39:34.314Z,17.98
2022-12-08T15:42:02.813Z,16.80
2022-12-08T15:44:33.139Z,15.88
2022-12-08T15:47:01.560Z,16.40
2022-12-08T15:49:29.485Z,15.52
2022-12-08T15:52:11.128Z,17.15
2022-12-08T15:54:41.073Z,15.07
2022-12-08T15:57:20.501Z,16.85
2022-12-08T15:59:57.604Z,18.83
2022-12-08T16:02:25.523Z,18.02
2022-12-08T16:07:42.821Z,18.92
2022-12-08T16:10:16.557Z,17.90
2022-12-08T16:15:59.854Z,18.60
2022-12-08T16:18:29.345Z,19.33
2022-12-08T16:21:31.553Z,18.55
2022-12-08T16:23:45.538Z,19.13
2022-12-08T16:26:28.615Z,16.25
2022-12-08T16:29:12.917Z,15.25
2022-12-08T16:31:40.823Z,17.63
2022-12-08T16:34:08.508Z,17.33
2022-12-08T16:36:36.117Z,16.75
2022-12-08T16:39:04.081Z,17.15
2022-12-08T16:41:52.117Z,18.80
2022-12-08T16:44:19.968Z,19.13
2022-12-08T16:46:47.456Z,19.33
2022-12-08T16:49:34.912Z,22.65
2022-12-08T16:52:02.505Z,17.35
2022-12-08T16:54:32.157Z,18.08
2022-12-08T16:57:01.041Z,19.17
2022-12-08T16:59:32.197Z,17.65
2022-12-08T17:02:05.723Z,15.95
2022-12-08T17:04:33.391Z,14.98
2022-12-08T17:07:02.100Z,16.90
2022-12-08T17:09:31.994Z,16.45
2022-12-08T17:12:04.013Z,15.10
2022-12-08T17:14:36.302Z,16.58
2022-12-08T17:17:04.397Z,16.10
2022-12-08T17:19:32.056Z,15.00
2022-12-08T17:21:59.671Z,14.60
2022-12-08T17:24:29.239Z,13.10
2022-12-08T17:26:57.039Z,12.57
2022-12-08T17:29:28.870Z,14.35
2022-12-08T17:31:56.509Z,12.60
2022-12-08T17:34:24.346Z,13.05
2022-12-08T17:36:52.987Z,13.82
2022-12-08T17:39:20.906Z,13.48
2022-12-08T17:41:49.302Z,12.43
2022-12-08T17:44:18.060Z,13.95
2022-12-08T17:46:52.908Z,13.45
2022-12-08T17:49:21.465Z,11.88
2022-12-08T17:51:49.213Z,14.07
2022-12-08T17:54:17.088Z,15.13
2022-12-08T17:56:45.103Z,12.23
2022-12-08T17:59:13.251Z,12.93
2022-12-08T18:01:41.340Z,13.18
2022-12-08T18:04:10.619Z,14.15
2022-12-08T18:06:38.859Z,11.98
2022-12-08T18:09:07.485Z,14.05
2022-12-08T18:11:35.779Z,12.02
2022-12-08T18:14:09.459Z,12.82
2022-12-08T18:16:38.052Z,13.98
2022-12-08T18:19:06.346Z,13.73
2022-12-08T18:21:35.426Z,14.13
2022-12-08T18:24:03.400Z,13.35
2022-12-08T18:26:34.053Z,13.63
2022-12-08T18:29:02.115Z,13.90
2022-12-08T18:31:30.407Z,14.90
2022-12-08T18:33:59.277Z,15.52
2022-12-08T18:36:31.817Z,14.10
2022-12-08T18:39:03.449Z,14.40
2022-12-08T18:41:34.518Z,12.57
2022-12-08T18:44:02.168Z,12.55
2022-12-08T18:46:32.885Z,12.52
2022-12-08T18:49:03.482Z,12.70
2022-12-08T18:51:32.579Z,11.93
2022-12-08T18:54:02.384Z,11.80
2022-12-08T18:56:31.004Z,12.00
2022-12-08T18:59:03.236Z,11.25
2022-12-08T19:01:32.502Z,11.75
2022-12-08T19:06:47.863Z,10.02
2022-12-08T19:09:17.133Z,12.15
2022-12-08T19:11:45.396Z,12.23
2022-12-08T19:14:13.097Z,10.98
2022-12-08T19:16:40.656Z,12.50
2022-12-08T19:19:08.354Z,11.95
2022-12-08T19:21:38.261Z,11.48
2022-12-08T19:24:12.805Z,13.80
2022-12-08T19:26:42.911Z,12.90
2022-12-08T19:29:10.779Z,14.55
2022-12-08T19:31:38.834Z,16.23
2022-12-08T19:34:09.861Z,14.73
2022-12-08T19:36:42.504Z,17.67
2022-12-08T19:39:30.551Z,18.30
2022-12-08T19:42:24.733Z,16.65
2022-12-08T19:45:04.435Z,15.82
2022-12-08T19:47:40.743Z,15.50
2022-12-08T19:50:38.978Z,17.17
2022-12-08T19:53:07.298Z,18.20
2022-12-08T19:55:35.024Z,17.00
2022-12-08T19:58:03.945Z,18.77
2022-12-08T20:00:32.849Z,15.70
2022-12-08T20:03:01.793Z,16.73
2022-12-08T20:05:31.110Z,16.13
2022-12-08T20:07:59.406Z,14.45
2022-12-08T20:10:28.797Z,14.98
2022-12-08T20:13:15.398Z,15.27
2022-12-08T20:23:00.181Z,10.18
2022-12-08T20:25:36.971Z,13.90
2022-12-08T20:28:15.462Z,14.07
2022-12-08T20:30:49.082Z,14.40
2022-12-08T20:33:17.350Z,13.43
2022-12-08T20:35:45.276Z,14.48
2022-12-08T20:38:25.985Z,13.25
2022-12-08T20:42:38.145Z,13.88
2022-12-08T20:44:08.443Z,14.18
2022-12-08T20:46:44.966Z,13.23
2022-12-08T20:51:58.349Z,15.60
2022-12-08T20:54:28.146Z,14.48
2022-12-08T20:56:57.273Z,15.75
2022-12-08T20:59:26.561Z,14.90
2022-12-08T21:01:55.973Z,14.77
2022-12-08T21:04:24.027Z,13.18
2022-12-08T21:06:51.856Z,15.23
2022-12-08T21:09:19.716Z,14.15
2022-12-08T21:11:56.127Z,14.20
2022-12-08T21:14:23.862Z,14.68
2022-12-08T21:16:51.589Z,15.15
2022-12-08T21:19:23.001Z,15.68
2022-12-08T21:21:51.635Z,14.68
2022-12-08T21:24:19.349Z,15.45
2022-12-08T21:26:48.618Z,15.13
2022-12-08T21:29:16.396Z,15.70
2022-12-08T21:31:44.177Z,14.32
2022-12-08T21:34:12.117Z,16.95
2022-12-08T21:36:39.758Z,16.85
2022-12-08T21:39:12.705Z,17.75
2022-12-08T21:41:57.314Z,15.67
2022-12-08T21:46:53.824Z,14.80
2022-12-08T21:49:24.743Z,13.65
2022-12-08T21:51:52.598Z,13.57
2022-12-08T21:54:20.278Z,13.55
2022-12-08T21:56:48.701Z,12.85
2022-12-08T21:59:22.635Z,13.68
2022-12-08T22:01:50.360Z,14.80
2022-12-08T22:04:21.965Z,15.00
2022-12-08T22:06:55.123Z,12.23
2022-12-08T22:09:31.641Z,13.43
2022-12-08T22:12:01.868Z,14.05
2022-12-08T22:14:29.815Z,13.15
2022-12-08T22:16:59.160Z,12.83
2022-12-08T22:19:28.120Z,12.50
2022-12-08T22:21:57.136Z,10.98
2022-12-08T22:24:24.891Z,13.02
2022-12-08T22:26:52.653Z,13.68
2022-12-08T22:29:20.337Z,12.23
2022-12-08T22:31:47.945Z,12.88
2022-12-08T22:34:16.709Z,12.00
2022-12-08T22:36:54.483Z,12.35
2022-12-08T22:39:22.019Z,13.30
2022-12-08T22:41:49.668Z,12.77
2022-12-08T22:44:17.418Z,14.32
2022-12-08T22:46:45.106Z,15.98
2022-12-08T22:49:13.613Z,12.73
2022-12-08T22:51:41.714Z,12.77
2022-12-08T22:54:12.176Z,13.60
2022-12-08T22:56:40.644Z,12.77
2022-12-08T22:59:08.324Z,14.02
2022-12-08T23:01:35.969Z,12.68
2022-12-08T23:04:03.915Z,12.75
2022-12-08T23:06:31.706Z,12.73
2022-12-08T23:08:59.685Z,13.85
2022-12-08T23:11:30.337Z,12.63
2022-12-08T23:13:59.809Z,12.00
2022-12-08T23:16:27.758Z,12.30
2022-12-08T23:18:55.463Z,12.55
2022-12-08T23:21:22.969Z,13.00
2022-12-08T23:23:50.501Z,12.82
2022-12-08T23:26:19.393Z,12.38
2022-12-08T23:28:48.635Z,13.27
2022-12-08T23:31:16.864Z,14.05
2022-12-08T23:33:44.788Z,12.48
2022-12-08T23:36:12.964Z,12.45
2022-12-08T23:38:40.417Z,10.45
2022-12-08T23:41:09.065Z,11.35
2022-12-08T23:43:37.031Z,11.23
2022-12-08T23:46:08.527Z,11.75
2022-12-08T23:48:36.158Z,12.63
2022-12-08T23:51:03.745Z,10.73
2022-12-08T23:53:31.484Z,11.55
2022-12-08T23:55:59.746Z,10.65
2022-12-08T23:58:27.230Z,11.70
